createdAt,value
2019-01-26T00:00:43.073Z,95305.08
2019-01-26T00:05:40.019Z,95309.81
2019-01-26T00:10:36.911Z,95302.72
2019-01-26T00:15:34.012Z,95292.05
2019-01-26T00:20:31.000Z,95296.02
2019-01-26T00:25:28.138Z,95299.05
2019-01-26T00:30:25.036Z,95285.16
2019-01-26T00:35:22.448Z,95285.39
2019-01-26T00:40:20.224Z,95281.38
2019-01-26T00:45:17.188Z,95285.38
2019-01-26T00:50:14.388Z,95295.36
2019-01-26T00:55:12.121Z,95290.57
2019-01-26T01:00:19.154Z,95288.32
2019-01-26T01:05:16.681Z,95288.59
2019-01-26T01:10:17.429Z,95284.34
2019-01-26T01:15:20.074Z,95281.31
2019-01-26T01:20:18.189Z,95280.85
2019-01-26T01:25:15.141Z,95278.34
2019-01-26T01:30:23.556Z,95271.95
2019-01-26T01:35:20.477Z,95270.17
2019-01-26T01:40:17.735Z,95267.33
2019-01-26T01:45:18.199Z,95254.41
2019-01-26T01:50:15.250Z,95245.39
2019-01-26T01:55:12.748Z,95253.36
2019-01-26T02:00:19.936Z,95249.16
2019-01-26T02:05:17.175Z,95238.75
2019-01-26T02:10:18.315Z,95232.59
2019-01-26T02:15:15.238Z,95231.58
2019-01-26T02:20:16.488Z,95232.72
2019-01-26T02:25:13.387Z,95226.83
2019-01-26T02:30:17.196Z,95223.30
2019-01-26T02:35:14.113Z,95213.45
2019-01-26T02:40:13.948Z,95205.17
2019-01-26T02:45:13.164Z,95203.37
2019-01-26T02:50:16.612Z,95205.06
2019-01-26T02:55:13.720Z,95202.52
2019-01-26T03:00:22.500Z,95202.38
2019-01-26T03:05:19.413Z,95196.25
2019-01-26T03:10:19.480Z,95195.33
2019-01-26T03:15:19.673Z,95197.45
2019-01-26T03:20:17.532Z,95185.94
2019-01-26T03:25:15.526Z,95182.09
2019-01-26T03:30:17.104Z,95182.66
2019-01-26T03:35:14.100Z,95180.20
2019-01-26T03:40:18.207Z,95176.42
2019-01-26T03:45:16.410Z,95178.80
2019-01-26T03:50:15.230Z,95180.72
2019-01-26T03:55:20.247Z,95176.56
2019-01-26T04:00:23.914Z,95167.81
2019-01-26T04:05:21.026Z,95171.20
2019-01-26T04:10:18.072Z,95155.59
2019-01-26T04:15:17.992Z,95148.10
2019-01-26T04:20:20.217Z,95147.94
2019-01-26T04:25:17.122Z,95146.73
2019-01-26T04:30:18.794Z,95135.66
2019-01-26T04:35:15.898Z,95137.55
2019-01-26T04:40:15.933Z,95129.16
2019-01-26T04:45:19.309Z,95127.97
2019-01-26T04:50:18.358Z,95123.55
2019-01-26T04:55:18.293Z,95125.78
2019-01-26T05:00:26.128Z,95116.31
2019-01-26T05:05:23.129Z,95121.63
2019-01-26T05:10:20.593Z,95114.71
2019-01-26T05:15:18.235Z,95110.78
2019-01-26T05:20:21.380Z,95104.66
2019-01-26T05:25:18.301Z,95108.20
2019-01-26T05:30:19.136Z,95101.39
2019-01-26T05:35:16.032Z,95102.02
2019-01-26T05:40:15.989Z,95108.22
2019-01-26T05:45:16.489Z,95100.62
2019-01-26T05:50:17.579Z,95097.76
2019-01-26T05:55:14.494Z,95090.72
2019-01-26T06:00:20.173Z,95087.15
2019-01-26T06:05:17.289Z,95089.83
2019-01-26T06:10:14.240Z,95088.59
2019-01-26T06:15:11.538Z,95086.58
2019-01-26T06:20:12.093Z,95089.98
2019-01-26T06:25:15.985Z,95090.38
2019-01-26T06:30:22.586Z,95088.54
2019-01-26T06:35:19.490Z,95092.32
2019-01-26T06:40:18.734Z,95078.88
2019-01-26T06:45:18.046Z,95065.27
2019-01-26T06:50:19.877Z,95058.64
2019-01-26T06:55:16.789Z,95065.20
2019-01-26T07:00:17.632Z,95067.66
2019-01-26T07:05:16.746Z,95060.25
2019-01-26T07:10:14.110Z,95056.95
2019-01-26T07:15:11.720Z,95058.98
2019-01-26T07:20:15.292Z,95046.95
2019-01-26T07:25:12.201Z,95037.27
2019-01-26T07:30:19.917Z,95017.05
2019-01-26T07:35:17.016Z,95005.30
2019-01-26T07:40:22.072Z,94995.27
2019-01-26T07:45:19.081Z,94990.63
2019-01-26T07:50:19.974Z,94986.90
2019-01-26T07:55:16.875Z,94986.99
2019-01-26T08:00:18.437Z,94973.93
2019-01-26T08:05:15.649Z,94968.52
2019-01-26T08:10:16.676Z,94961.93
2019-01-26T08:15:17.925Z,94965.38
2019-01-26T08:20:18.288Z,94956.06
2019-01-26T08:25:15.525Z,94966.73
2019-01-26T08:30:16.785Z,94963.45
2019-01-26T08:35:13.697Z,94960.88
2019-01-26T08:40:14.339Z,94958.51
2019-01-26T08:45:13.248Z,94951.56
2019-01-26T08:50:14.467Z,94949.88
2019-01-26T08:55:18.147Z,94943.30
2019-01-26T09:00:26.698Z,94935.80
2019-01-26T09:05:25.416Z,94938.42
2019-01-26T09:10:22.374Z,94938.06
2019-01-26T09:15:19.303Z,94931.75
2019-01-26T09:20:17.221Z,94935.52
2019-01-26T09:25:14.241Z,94931.45
2019-01-26T09:30:16.280Z,94924.75
2019-01-26T09:35:13.325Z,94930.27
2019-01-26T09:40:21.973Z,94924.02
2019-01-26T09:45:20.217Z,94925.03
2019-01-26T09:50:19.157Z,94890.11
2019-01-26T09:55:18.603Z,94867.88
2019-01-26T10:00:22.252Z,94863.30
2019-01-26T10:05:19.258Z,94851.46
2019-01-26T10:10:16.601Z,94859.38
2019-01-26T10:15:23.221Z,94852.69
2019-01-26T10:20:27.724Z,94853.40
2019-01-26T10:25:24.641Z,94848.42
2019-01-26T10:30:27.553Z,94838.52
2019-01-26T10:35:26.328Z,94832.45
2019-01-26T10:40:41.985Z,94824.55
2019-01-26T10:45:39.080Z,94815.50
2019-01-26T10:50:36.049Z,94809.47
2019-01-26T10:55:33.003Z,94800.08
2019-01-26T11:00:30.033Z,94780.31
2019-01-26T11:05:26.973Z,94782.97
2019-01-26T11:10:24.130Z,94780.64
2019-01-26T11:15:21.028Z,94770.88
2019-01-26T11:20:18.014Z,94749.94
2019-01-26T11:25:15.404Z,94742.83
2019-01-26T11:30:17.398Z,94739.66
2019-01-26T11:35:17.304Z,94726.78
2019-01-26T11:40:16.386Z,94736.00
2019-01-26T11:45:16.739Z,94733.72
2019-01-26T11:50:24.364Z,94725.12
2019-01-26T11:55:23.058Z,94714.86
2019-01-26T12:00:31.206Z,94705.44
2019-01-26T12:05:29.944Z,94695.11
2019-01-26T12:10:26.851Z,94694.00
2019-01-26T12:15:24.401Z,94692.38
2019-01-26T12:20:21.304Z,94671.95
2019-01-26T12:25:18.293Z,94666.97
2019-01-26T12:30:15.458Z,94682.33
2019-01-26T12:35:14.293Z,94674.77
2019-01-26T12:40:14.407Z,94671.62
2019-01-26T12:45:16.301Z,94668.83
2019-01-26T12:50:13.423Z,94655.96
2019-01-26T12:55:16.060Z,94649.22
2019-01-26T13:00:23.074Z,94644.36
2019-01-26T13:05:20.269Z,94638.46
2019-01-26T13:10:25.649Z,94645.32
2019-01-26T13:15:22.850Z,94643.89
2019-01-26T13:20:20.491Z,94631.08
2019-01-26T13:25:18.238Z,94635.86
2019-01-26T13:30:24.312Z,94629.97
2019-01-26T13:35:21.233Z,94637.72
2019-01-26T13:40:27.920Z,94645.16
2019-01-26T13:45:24.841Z,94638.88
2019-01-26T13:50:21.797Z,94645.47
2019-01-26T13:55:21.011Z,94652.22
2019-01-26T14:00:36.273Z,94648.61
2019-01-26T14:05:33.198Z,94646.14
2019-01-26T14:10:31.639Z,94639.84
2019-01-26T14:15:28.644Z,94652.00
2019-01-26T14:20:27.478Z,94643.58
2019-01-26T14:25:25.838Z,94639.77
2019-01-26T14:30:37.119Z,94630.23
2019-01-26T14:35:34.024Z,94632.48
2019-01-26T14:40:31.345Z,94629.84
2019-01-26T14:45:29.188Z,94629.47
2019-01-26T14:50:26.493Z,94634.64
2019-01-26T14:55:28.826Z,94637.06
2019-01-26T15:00:29.613Z,94635.77
2019-01-26T15:05:27.237Z,94639.38
2019-01-26T15:10:24.391Z,94640.95
2019-01-26T15:15:21.485Z,94646.05
2019-01-26T15:20:35.434Z,94641.25
2019-01-26T15:25:32.440Z,94638.27
2019-01-26T15:30:38.497Z,94655.66
2019-01-26T15:35:35.417Z,94663.23
2019-01-26T15:40:32.375Z,94664.51
2019-01-26T15:45:36.655Z,94662.20
2019-01-26T15:50:33.660Z,94661.83
2019-01-26T15:55:30.610Z,94664.13
2019-01-26T16:00:40.458Z,94669.34
2019-01-26T16:05:37.601Z,94662.92
2019-01-26T16:10:34.544Z,94665.58
2019-01-26T16:15:34.965Z,94656.11
2019-01-26T16:20:31.921Z,94655.07
2019-01-26T16:25:29.005Z,94662.44
2019-01-26T16:30:29.866Z,94664.44
2019-01-26T16:35:26.959Z,94660.19
2019-01-26T16:40:30.223Z,94667.77
2019-01-26T16:45:30.733Z,94666.92
2019-01-26T16:50:29.978Z,94669.78
2019-01-26T16:55:27.005Z,94672.31
2019-01-26T17:00:38.459Z,94669.08
2019-01-26T17:05:35.369Z,94673.72
2019-01-26T17:10:34.321Z,94671.43
2019-01-26T17:15:31.602Z,94666.52
2019-01-26T17:20:37.849Z,94673.50
2019-01-26T17:25:34.748Z,94671.63
2019-01-26T17:30:39.013Z,94677.28
2019-01-26T17:35:36.607Z,94673.67
2019-01-26T17:40:33.704Z,94683.27
2019-01-26T17:45:30.598Z,94679.05
2019-01-26T17:50:28.345Z,94675.42
2019-01-26T17:55:25.269Z,94676.95
2019-01-26T18:00:33.269Z,94672.88
2019-01-26T18:05:31.104Z,94668.90
2019-01-26T18:10:28.062Z,94676.95
2019-01-26T18:15:25.012Z,94671.71
2019-01-26T18:20:25.525Z,94669.78
2019-01-26T18:25:24.343Z,94666.06
2019-01-26T18:30:29.516Z,94668.01
2019-01-26T18:35:26.438Z,94673.45
2019-01-26T18:40:28.766Z,94669.71
2019-01-26T18:45:30.731Z,94668.75
2019-01-26T18:50:41.066Z,94673.18
2019-01-26T18:55:38.137Z,94667.59
2019-01-26T19:00:42.256Z,94676.31
2019-01-26T19:05:39.227Z,94671.23
2019-01-26T19:10:36.173Z,94672.50
2019-01-26T19:15:33.107Z,94667.89
2019-01-26T19:20:30.144Z,94670.88
2019-01-26T19:25:27.045Z,94668.09
2019-01-26T19:30:24.134Z,94677.33
2019-01-26T19:35:21.189Z,94681.28
2019-01-26T19:40:22.986Z,94683.80
2019-01-26T19:45:23.666Z,94679.36
2019-01-26T19:50:23.832Z,94677.06
2019-01-26T19:55:22.769Z,94670.15
2019-01-26T20:00:20.071Z,94674.44
2019-01-26T20:05:24.381Z,94674.57
2019-01-26T20:10:22.010Z,94670.11
2019-01-26T20:15:23.864Z,94669.09
2019-01-26T20:20:28.873Z,94660.86
2019-01-26T20:25:26.000Z,94662.99
2019-01-26T20:30:30.632Z,94673.08
2019-01-26T20:35:27.543Z,94664.02
2019-01-26T20:40:24.604Z,94662.55
2019-01-26T20:45:24.901Z,94663.67
2019-01-26T20:50:21.972Z,94668.05
2019-01-26T20:55:19.106Z,94671.05
2019-01-26T21:00:27.016Z,94677.50
2019-01-26T21:05:24.229Z,94675.06
2019-01-26T21:10:24.378Z,94679.36
2019-01-26T21:15:22.944Z,94680.69
2019-01-26T21:20:22.725Z,94686.16
2019-01-26T21:25:19.830Z,94677.95
2019-01-26T21:30:25.576Z,94681.05
2019-01-26T21:35:23.464Z,94672.00
2019-01-26T21:40:28.803Z,94682.73
2019-01-26T21:45:25.736Z,94680.76
2019-01-26T21:50:28.349Z,94688.81
2019-01-26T21:55:25.270Z,94683.23
2019-01-26T22:00:25.593Z,94687.83
2019-01-26T22:05:22.490Z,94684.39
2019-01-26T22:10:24.009Z,94685.53
2019-01-26T22:15:22.522Z,94672.67
2019-01-26T22:20:26.133Z,94684.20
2019-01-26T22:25:23.445Z,94681.57
2019-01-26T22:30:23.304Z,94687.83
2019-01-26T22:35:20.715Z,94688.33
2019-01-26T22:40:24.078Z,94690.28
2019-01-26T22:45:21.776Z,94686.51
2019-01-26T22:50:24.909Z,94693.27
2019-01-26T22:55:22.101Z,94691.96
2019-01-26T23:00:45.570Z,94688.67
2019-01-26T23:06:06.130Z,94694.26
2019-01-26T23:11:11.759Z,94693.95
2019-01-26T23:16:44.189Z,94692.44
2019-01-26T23:21:58.507Z,94694.08
2019-01-26T23:27:13.181Z,94688.33
2019-01-26T23:32:10.104Z,94693.59
2019-01-26T23:37:07.089Z,94701.19
2019-01-26T23:42:03.987Z,94694.25
2019-01-26T23:47:00.937Z,94699.88
2019-01-26T23:51:57.830Z,94701.70
2019-01-26T23:56:54.836Z,94700.72
